Time;durP1;ratioP1;P1;durP2;ratioP2;P2;SDS_P1;SDS_P2;PMS_P1;PMS_P2;Temp;Humidity;BMP_temperature;BMP_pressure;BME280_temperature;BME280_humidity;BME280_pressure;Samples;Min_cycle;Max_cycle;Signal;HPM_P1;HPM_P2
2022/12/06 00:00:37;;;;;;;6.37;4.07;;;;;;;;;;5031181;28;20575;-71
2022/12/06 00:03:03;;;;;;;10.00;4.47;;;;;;;;;;5029532;28;20178;-71
2022/12/06 00:05:29;;;;;;;9.10;3.97;;;;;;;;;;5029097;28;20163;-71
2022/12/06 00:07:55;;;;;;;10.23;4.40;;;;;;;;;;5029513;28;20175;-71
2022/12/06 00:10:20;;;;;;;10.43;4.07;;;;;;;;;;5030801;28;20198;-70
2022/12/06 00:12:45;;;;;;;9.27;4.87;;;;;;;;;;5029506;28;20174;-71
2022/12/06 00:15:10;;;;;;;6.00;3.77;;;;;;;;;;5024779;28;20187;-71
2022/12/06 00:17:35;;;;;;;5.83;3.40;;;;;;;;;;5030780;28;20178;-71
2022/12/06 00:20:01;;;;;;;6.37;3.70;;;;;;;;;;5031791;28;20202;-71
2022/12/06 00:22:26;;;;;;;7.70;4.40;;;;;;;;;;5030834;28;20180;-71
2022/12/06 00:24:51;;;;;;;7.67;4.13;;;;;;;;;;5031675;28;20163;-72
2022/12/06 00:27:16;;;;;;;11.67;3.87;;;;;;;;;;5027343;28;20189;-71
2022/12/06 00:29:41;;;;;;;13.93;4.83;;;;;;;;;;5031640;28;20177;-72
2022/12/06 00:32:07;;;;;;;7.70;3.67;;;;;;;;;;5014079;28;20179;-70
2022/12/06 00:34:32;;;;;;;7.30;4.10;;;;;;;;;;5014409;28;20194;-71
2022/12/06 00:36:57;;;;;;;11.33;4.33;;;;;;;;;;5024322;28;20189;-71
2022/12/06 00:39:22;;;;;;;8.23;3.87;;;;;;;;;;5007319;28;20190;-71
2022/12/06 00:41:47;;;;;;;13.00;4.27;;;;;;;;;;5014366;28;20293;-71
2022/12/06 00:44:13;;;;;;;12.03;4.10;;;;;;;;;;5016072;28;20270;-71
2022/12/06 00:46:38;;;;;;;7.93;3.27;;;;;;;;;;5027497;28;20220;-71
2022/12/06 00:49:05;;;;;;;9.83;5.00;;;;;;;;;;5024331;28;20167;-71
2022/12/06 00:51:30;;;;;;;12.97;4.53;;;;;;;;;;5028916;28;20202;-71
2022/12/06 00:53:57;;;;;;;7.93;4.10;;;;;;;;;;5032487;28;20174;-70
2022/12/06 00:56:22;;;;;;;8.47;3.97;;;;;;;;;;5031588;28;20265;-71
2022/12/06 00:58:48;;;;;;;6.77;3.80;;;;;;;;;;5030206;28;20262;-70
2022/12/06 01:01:21;;;;;;;7.57;3.63;;;;;;;;;;5029740;28;20278;-70
2022/12/06 01:03:50;;;;;;;11.60;3.73;;;;;;;;;;5030336;28;20181;-71
2022/12/06 01:06:15;;;;;;;9.10;4.00;;;;;;;;;;5030525;28;20178;-70
2022/12/06 01:08:40;;;;;;;9.10;4.53;;;;;;;;;;5024827;28;20280;-72
2022/12/06 01:11:06;;;;;;;7.27;3.67;;;;;;;;;;5034502;28;20676;-71
2022/12/06 01:13:31;;;;;;;8.47;3.80;;;;;;;;;;5036175;28;20681;-71
2022/12/06 01:16:02;;;;;;;8.13;3.50;;;;;;;;;;5032269;28;20181;-71
2022/12/06 01:18:27;;;;;;;7.40;3.60;;;;;;;;;;5031724;28;20596;-71
2022/12/06 01:20:53;;;;;;;9.10;4.07;;;;;;;;;;5028735;28;20648;-71
2022/12/06 01:23:18;;;;;;;5.27;3.17;;;;;;;;;;5031493;28;20193;-71
2022/12/06 01:25:50;;;;;;;6.70;3.23;;;;;;;;;;5002513;28;20179;-71
2022/12/06 01:28:15;;;;;;;6.03;3.73;;;;;;;;;;5027797;28;20216;-71
2022/12/06 01:30:40;;;;;;;7.23;3.40;;;;;;;;;;5032520;28;20607;-70
2022/12/06 01:33:05;;;;;;;7.50;3.87;;;;;;;;;;5022549;28;20185;-71
2022/12/06 01:35:31;;;;;;;7.87;3.63;;;;;;;;;;5029880;28;20213;-72
2022/12/06 01:37:56;;;;;;;11.43;3.50;;;;;;;;;;5031085;28;20523;-71
2022/12/06 01:40:21;;;;;;;11.47;3.53;;;;;;;;;;5029629;28;20209;-71
2022/12/06 01:42:46;;;;;;;8.20;3.33;;;;;;;;;;5028308;28;20648;-72
2022/12/06 01:45:12;;;;;;;8.63;3.73;;;;;;;;;;5011556;28;20187;-71
2022/12/06 01:47:39;;;;;;;8.17;3.50;;;;;;;;;;5020986;28;20214;-71
2022/12/06 01:50:19;;;;;;;8.87;3.20;;;;;;;;;;5026167;28;20206;-72
2022/12/06 01:52:44;;;;;;;6.93;3.23;;;;;;;;;;5036676;28;20182;-72
2022/12/06 01:55:09;;;;;;;7.93;3.65;;;;;;;;;;5030067;28;20189;-73
2022/12/06 01:57:35;;;;;;;7.00;3.57;;;;;;;;;;5032704;28;20702;-71
2022/12/06 02:00:00;;;;;;;5.27;2.90;;;;;;;;;;5034064;28;20206;-71
2022/12/06 02:02:25;;;;;;;7.83;2.80;;;;;;;;;;5026208;28;20178;-72
2022/12/06 02:04:51;;;;;;;6.70;3.63;;;;;;;;;;5028651;28;20170;-72
2022/12/06 02:07:16;;;;;;;5.37;2.70;;;;;;;;;;5027359;28;20171;-72
2022/12/06 02:09:42;;;;;;;11.97;3.60;;;;;;;;;;5030475;28;20631;-71
2022/12/06 02:12:12;;;;;;;12.23;4.07;;;;;;;;;;5031648;28;20181;-71
2022/12/06 02:14:37;;;;;;;5.70;3.00;;;;;;;;;;5029698;28;20273;-72
2022/12/06 02:17:05;;;;;;;7.10;2.80;;;;;;;;;;5031847;28;20257;-72
2022/12/06 02:19:39;;;;;;;6.93;2.30;;;;;;;;;;5035425;28;20227;-72
2022/12/06 02:22:22;;;;;;;9.30;2.50;;;;;;;;;;5027389;28;20301;-72
2022/12/06 02:25:05;;;;;;;6.90;2.07;;;;;;;;;;5026121;28;20178;-72
2022/12/06 02:27:36;;;;;;;6.20;2.10;;;;;;;;;;5034448;28;20190;-71
2022/12/06 02:30:08;;;;;;;4.63;2.47;;;;;;;;;;5037859;28;20221;-71
2022/12/06 02:32:35;;;;;;;4.37;2.23;;;;;;;;;;5035255;28;20187;-71
2022/12/06 02:35:19;;;;;;;4.83;2.57;;;;;;;;;;5031714;28;20617;-71
2022/12/06 02:37:50;;;;;;;4.50;2.33;;;;;;;;;;5033962;28;20182;-71
2022/12/06 02:40:19;;;;;;;6.07;2.70;;;;;;;;;;5028773;28;20749;-70
2022/12/06 02:42:47;;;;;;;4.00;2.20;;;;;;;;;;5016517;28;20186;-72
2022/12/06 02:45:18;;;;;;;5.03;2.53;;;;;;;;;;5030271;28;20205;-71
2022/12/06 02:47:44;;;;;;;4.40;2.70;;;;;;;;;;5012597;28;20186;-71
2022/12/06 02:50:17;;;;;;;4.83;2.70;;;;;;;;;;5025645;28;20221;-71
2022/12/06 02:52:44;;;;;;;7.93;2.40;;;;;;;;;;5029213;28;20193;-71
2022/12/06 02:55:10;;;;;;;4.67;3.30;;;;;;;;;;5032459;28;20659;-72
2022/12/06 02:57:40;;;;;;;5.37;2.30;;;;;;;;;;5030773;28;20174;-72
2022/12/06 03:00:24;;;;;;;7.40;2.67;;;;;;;;;;5033011;28;20594;-72
2022/12/06 03:02:50;;;;;;;5.47;2.73;;;;;;;;;;5027030;28;20743;-71
2022/12/06 03:05:21;;;;;;;4.63;2.80;;;;;;;;;;5032496;28;20205;-72
2022/12/06 03:07:47;;;;;;;6.83;3.07;;;;;;;;;;5007751;28;20265;-71
2022/12/06 03:10:36;;;;;;;3.73;2.43;;;;;;;;;;5031692;28;20722;-72
2022/12/06 03:13:16;;;;;;;7.47;2.30;;;;;;;;;;5028856;28;20202;-71
2022/12/06 03:16:05;;;;;;;5.53;2.27;;;;;;;;;;5032444;28;20182;-71
2022/12/06 03:18:35;;;;;;;4.13;2.50;;;;;;;;;;5025061;28;20672;-72
2022/12/06 03:21:05;;;;;;;8.03;3.10;;;;;;;;;;5031315;28;20210;-71
2022/12/06 03:23:35;;;;;;;6.23;2.40;;;;;;;;;;5032099;28;20182;-71
2022/12/06 03:26:01;;;;;;;10.30;2.53;;;;;;;;;;5024071;28;20236;-71
2022/12/06 03:28:27;;;;;;;4.47;2.30;;;;;;;;;;5030339;28;20170;-71
2022/12/06 03:30:56;;;;;;;3.77;1.93;;;;;;;;;;5030852;28;20202;-71
2022/12/06 03:33:22;;;;;;;6.13;2.53;;;;;;;;;;5027277;28;20593;-71
2022/12/06 03:35:49;;;;;;;3.97;2.20;;;;;;;;;;5014345;28;20185;-71
2022/12/06 03:38:17;;;;;;;5.13;2.40;;;;;;;;;;5031784;28;20652;-71
2022/12/06 03:40:46;;;;;;;5.43;2.33;;;;;;;;;;5025983;28;20213;-71
2022/12/06 03:43:11;;;;;;;3.37;2.33;;;;;;;;;;5031830;28;20239;-71
2022/12/06 03:45:39;;;;;;;4.60;2.10;;;;;;;;;;5013217;28;20265;-71
2022/12/06 03:48:27;;;;;;;6.30;1.90;;;;;;;;;;5029547;28;20186;-72
2022/12/06 03:50:56;;;;;;;5.47;2.07;;;;;;;;;;4994868;28;20221;-70
2022/12/06 03:53:21;;;;;;;5.43;2.50;;;;;;;;;;5031376;28;20677;-71
2022/12/06 03:55:46;;;;;;;4.30;2.10;;;;;;;;;;5031428;28;20329;-72
2022/12/06 03:58:12;;;;;;;4.60;1.97;;;;;;;;;;5012490;28;20206;-71
2022/12/06 04:00:37;;;;;;;3.00;1.90;;;;;;;;;;5031687;28;20206;-71
2022/12/06 04:03:02;;;;;;;3.90;2.63;;;;;;;;;;5031119;28;20178;-71
2022/12/06 04:05:27;;;;;;;6.40;2.03;;;;;;;;;;5028847;28;20265;-71
2022/12/06 04:07:53;;;;;;;8.90;2.37;;;;;;;;;;5029891;28;20273;-71
2022/12/06 04:10:18;;;;;;;5.87;1.90;;;;;;;;;;5030972;28;20714;-72
2022/12/06 04:13:01;;;;;;;2.83;2.00;;;;;;;;;;5028934;28;20221;-71
2022/12/06 04:15:28;;;;;;;3.43;1.93;;;;;;;;;;5030772;28;20174;-71
2022/12/06 04:23:28;;;;;;;5.67;1.93;;;;;;;;;;5029449;28;20508;-70
2022/12/06 04:25:53;;;;;;;3.63;2.10;;;;;;;;;;5027909;28;20178;-71
2022/12/06 04:39:14;;;;;;;5.83;2.37;;;;;;;;;;5030579;28;20240;-71
2022/12/06 04:44:24;;;;;;;4.90;2.33;;;;;;;;;;5028268;28;20601;-72
2022/12/06 04:46:49;;;;;;;8.60;2.50;;;;;;;;;;5026745;28;20174;-72
2022/12/06 04:49:14;;;;;;;6.20;2.53;;;;;;;;;;5030031;28;20249;-72
2022/12/06 04:51:39;;;;;;;3.50;2.27;;;;;;;;;;5030225;28;20194;-72
2022/12/06 04:54:06;;;;;;;4.00;1.93;;;;;;;;;;5028639;28;20746;-72
2022/12/06 04:56:31;;;;;;;5.17;2.17;;;;;;;;;;5029662;28;20178;-72
2022/12/06 04:58:56;;;;;;;4.47;2.07;;;;;;;;;;5030025;28;20182;-72
2022/12/06 05:01:21;;;;;;;4.80;2.53;;;;;;;;;;5029263;28;20228;-72
2022/12/06 05:03:46;;;;;;;3.93;2.40;;;;;;;;;;5030432;28;20178;-73
2022/12/06 05:06:12;;;;;;;4.87;2.23;;;;;;;;;;5029825;28;20666;-73
2022/12/06 05:08:37;;;;;;;9.10;2.73;;;;;;;;;;5029822;28;20190;-72
2022/12/06 05:11:02;;;;;;;4.10;2.43;;;;;;;;;;5029204;28;20214;-72
2022/12/06 05:13:27;;;;;;;6.53;2.50;;;;;;;;;;5030747;28;20189;-72
2022/12/06 05:15:55;;;;;;;3.70;2.13;;;;;;;;;;5029895;28;20182;-72
2022/12/06 05:18:20;;;;;;;8.03;2.33;;;;;;;;;;5031755;28;20235;-72
2022/12/06 05:20:45;;;;;;;5.03;2.60;;;;;;;;;;5028458;28;20229;-72
2022/12/06 05:23:11;;;;;;;6.10;3.30;;;;;;;;;;5030378;28;20201;-72
2022/12/06 05:25:36;;;;;;;2.97;2.17;;;;;;;;;;5031100;28;20261;-72
2022/12/06 05:28:01;;;;;;;8.27;2.97;;;;;;;;;;5031644;28;20655;-72
2022/12/06 05:30:26;;;;;;;7.10;2.37;;;;;;;;;;5030304;28;20198;-72
2022/12/06 05:32:51;;;;;;;12.77;3.50;;;;;;;;;;5030130;28;20178;-72
2022/12/06 05:35:17;;;;;;;5.83;2.87;;;;;;;;;;5030538;28;20272;-72
2022/12/06 05:37:42;;;;;;;5.50;2.80;;;;;;;;;;5029990;28;20182;-72
2022/12/06 05:40:07;;;;;;;6.93;2.70;;;;;;;;;;5030784;28;20209;-72
2022/12/06 05:42:33;;;;;;;5.63;2.60;;;;;;;;;;5028575;28;20602;-72
2022/12/06 05:44:58;;;;;;;6.00;2.50;;;;;;;;;;5017747;28;20186;-74
2022/12/06 05:47:23;;;;;;;7.20;2.57;;;;;;;;;;5027403;28;20257;-72
2022/12/06 05:49:50;;;;;;;3.03;2.00;;;;;;;;;;5029164;28;20636;-72
2022/12/06 05:52:15;;;;;;;4.77;2.80;;;;;;;;;;5028893;28;20719;-72
2022/12/06 05:54:40;;;;;;;5.23;2.63;;;;;;;;;;5029745;28;20309;-72
2022/12/06 05:57:05;;;;;;;4.93;2.90;;;;;;;;;;5029481;28;20201;-72
2022/12/06 05:59:30;;;;;;;3.67;2.00;;;;;;;;;;5032279;28;20275;-72
2022/12/06 06:01:56;;;;;;;5.07;2.13;;;;;;;;;;5028508;28;20215;-72
2022/12/06 06:04:21;;;;;;;3.90;2.27;;;;;;;;;;5033286;28;20238;-72
2022/12/06 06:06:46;;;;;;;4.67;1.97;;;;;;;;;;5033386;28;20193;-72
2022/12/06 06:09:11;;;;;;;7.80;2.20;;;;;;;;;;5033203;28;20256;-72
2022/12/06 06:11:36;;;;;;;3.87;2.23;;;;;;;;;;5033432;28;20228;-72
2022/12/06 06:14:01;;;;;;;8.23;3.00;;;;;;;;;;5032241;28;20193;-72
2022/12/06 06:16:27;;;;;;;4.30;2.43;;;;;;;;;;5031491;28;20240;-73
2022/12/06 06:18:52;;;;;;;6.27;2.43;;;;;;;;;;5032855;28;20266;-72
2022/12/06 06:21:17;;;;;;;4.03;2.30;;;;;;;;;;5032198;28;20256;-72
2022/12/06 06:23:42;;;;;;;6.60;2.43;;;;;;;;;;5034510;28;20178;-73
2022/12/06 06:26:09;;;;;;;9.60;2.57;;;;;;;;;;5030929;28;20224;-72
2022/12/06 06:28:34;;;;;;;4.67;2.17;;;;;;;;;;5030026;28;20451;-72
2022/12/06 06:31:03;;;;;;;5.30;2.70;;;;;;;;;;5032355;28;20201;-72
2022/12/06 06:33:28;;;;;;;7.50;3.60;;;;;;;;;;5015193;28;20670;-72
2022/12/06 06:35:53;;;;;;;4.50;2.37;;;;;;;;;;5034471;28;20214;-72
2022/12/06 06:38:18;;;;;;;3.47;2.10;;;;;;;;;;5032723;28;20188;-72
2022/12/06 06:40:43;;;;;;;5.93;2.17;;;;;;;;;;5030832;28;20396;-72
2022/12/06 06:43:19;;;;;;;3.90;2.67;;;;;;;;;;5035966;28;20198;-71
2022/12/06 06:45:54;;;;;;;6.80;2.83;;;;;;;;;;5033367;28;20217;-71
2022/12/06 06:48:19;;;;;;;5.80;2.47;;;;;;;;;;5039017;28;20230;-71
2022/12/06 06:50:45;;;;;;;4.00;2.60;;;;;;;;;;5032258;28;20684;-71
2022/12/06 06:53:10;;;;;;;8.70;3.50;;;;;;;;;;5031909;28;20178;-71
2022/12/06 06:55:35;;;;;;;4.63;2.50;;;;;;;;;;5031451;28;20170;-71
2022/12/06 06:58:01;;;;;;;4.33;2.43;;;;;;;;;;5033518;28;20653;-72
2022/12/06 07:00:26;;;;;;;4.97;2.43;;;;;;;;;;5027881;28;20244;-71
2022/12/06 07:02:51;;;;;;;3.23;2.33;;;;;;;;;;5013652;28;20270;-72
2022/12/06 07:05:16;;;;;;;3.83;2.47;;;;;;;;;;5032263;28;20177;-72
2022/12/06 07:07:41;;;;;;;4.20;2.80;;;;;;;;;;5007847;28;20190;-72
2022/12/06 07:10:07;;;;;;;7.40;3.90;;;;;;;;;;5024783;28;20198;-72
2022/12/06 07:12:32;;;;;;;6.67;3.60;;;;;;;;;;5030341;28;20774;-71
2022/12/06 07:14:57;;;;;;;6.50;3.63;;;;;;;;;;5031750;28;20631;-71
2022/12/06 07:17:23;;;;;;;4.10;3.00;;;;;;;;;;5033461;28;20240;-71
2022/12/06 07:19:48;;;;;;;5.27;3.53;;;;;;;;;;5031279;28;20181;-71
2022/12/06 07:22:13;;;;;;;6.77;3.13;;;;;;;;;;5013340;28;20648;-72
2022/12/06 07:24:39;;;;;;;5.93;3.17;;;;;;;;;;5026384;28;20637;-72
2022/12/06 07:27:04;;;;;;;7.97;3.37;;;;;;;;;;5020635;28;20186;-72
2022/12/06 07:29:29;;;;;;;7.20;3.50;;;;;;;;;;5031775;28;20256;-72
2022/12/06 07:31:54;;;;;;;8.93;4.30;;;;;;;;;;5031473;28;20276;-72
2022/12/06 07:34:19;;;;;;;4.50;3.03;;;;;;;;;;5031719;28;20181;-72
2022/12/06 07:36:45;;;;;;;5.90;3.47;;;;;;;;;;5032004;28;20232;-72
2022/12/06 07:39:10;;;;;;;7.10;3.43;;;;;;;;;;5032781;28;20206;-72
2022/12/06 07:47:03;;;;;;;6.77;3.57;;;;;;;;;;5046208;28;20192;-82
2022/12/06 07:49:28;;;;;;;3.87;3.17;;;;;;;;;;5041342;28;20182;-81
2022/12/06 07:51:53;;;;;;;8.07;4.77;;;;;;;;;;5045783;28;20261;-82
2022/12/06 07:54:19;;;;;;;7.43;3.63;;;;;;;;;;5029167;28;20583;-82
2022/12/06 07:56:44;;;;;;;10.43;3.80;;;;;;;;;;5047090;28;20236;-81
2022/12/06 07:59:09;;;;;;;6.50;4.30;;;;;;;;;;5026699;28;20273;-81
2022/12/06 08:01:34;;;;;;;6.30;3.40;;;;;;;;;;5040204;28;20260;-82
2022/12/06 08:04:00;;;;;;;9.23;3.47;;;;;;;;;;5022118;28;20597;-81
2022/12/06 08:06:26;;;;;;;5.77;3.37;;;;;;;;;;5025776;28;20668;-82
2022/12/06 08:08:51;;;;;;;5.40;3.57;;;;;;;;;;5043150;28;21886;-82
2022/12/06 08:11:16;;;;;;;5.83;3.63;;;;;;;;;;5043517;28;20198;-82
2022/12/06 08:13:42;;;;;;;7.27;4.07;;;;;;;;;;5023084;28;20236;-83
2022/12/06 08:16:08;;;;;;;8.17;3.80;;;;;;;;;;5042236;28;20182;-82
2022/12/06 08:18:33;;;;;;;7.87;4.13;;;;;;;;;;5043178;28;20178;-82
2022/12/06 08:20:59;;;;;;;5.77;3.40;;;;;;;;;;5046619;28;20194;-82
2022/12/06 08:23:24;;;;;;;6.70;4.10;;;;;;;;;;5041418;28;20632;-82
2022/12/06 08:25:57;;;;;;;6.73;4.40;;;;;;;;;;5043171;28;20185;-82
2022/12/06 08:28:22;;;;;;;7.30;4.20;;;;;;;;;;5026056;28;20205;-82
2022/12/06 08:30:47;;;;;;;8.20;4.83;;;;;;;;;;5040664;28;20202;-82
2022/12/06 08:33:12;;;;;;;8.80;4.23;;;;;;;;;;5041476;28;20659;-82
2022/12/06 08:35:37;;;;;;;9.33;4.10;;;;;;;;;;5043565;28;20553;-82
2022/12/06 08:38:02;;;;;;;6.80;3.80;;;;;;;;;;5043060;28;20182;-82
2022/12/06 08:40:28;;;;;;;14.83;6.97;;;;;;;;;;5021841;28;20268;-82
2022/12/06 08:42:53;;;;;;;8.83;4.27;;;;;;;;;;5039487;28;20189;-83
2022/12/06 08:45:18;;;;;;;8.30;4.70;;;;;;;;;;5043808;28;20178;-83
2022/12/06 08:47:43;;;;;;;10.70;4.80;;;;;;;;;;5039946;28;20759;-83
2022/12/06 08:50:08;;;;;;;7.43;5.13;;;;;;;;;;5042576;28;20190;-83
2022/12/06 08:52:34;;;;;;;7.73;5.47;;;;;;;;;;5041120;28;20194;-82
2022/12/06 08:54:59;;;;;;;9.80;4.90;;;;;;;;;;5023347;28;20174;-82
2022/12/06 08:57:24;;;;;;;8.67;4.87;;;;;;;;;;5024911;28;20177;-82
2022/12/06 08:59:49;;;;;;;11.30;5.03;;;;;;;;;;5024305;28;20200;-82
2022/12/06 09:02:14;;;;;;;12.80;5.50;;;;;;;;;;5041663;28;20206;-82
2022/12/06 09:04:40;;;;;;;9.13;4.70;;;;;;;;;;5038217;28;20183;-82
2022/12/06 09:07:05;;;;;;;9.47;5.60;;;;;;;;;;5041147;28;20182;-82
2022/12/06 09:09:30;;;;;;;12.23;6.07;;;;;;;;;;5023812;28;20241;-82
2022/12/06 09:11:55;;;;;;;10.20;5.63;;;;;;;;;;5023780;28;20317;-82
2022/12/06 09:14:21;;;;;;;10.20;5.53;;;;;;;;;;5040310;28;20772;-82
2022/12/06 09:16:46;;;;;;;12.73;5.53;;;;;;;;;;5042342;28;20182;-81
2022/12/06 09:19:11;;;;;;;9.33;5.07;;;;;;;;;;5040119;28;20182;-83
2022/12/06 09:21:38;;;;;;;8.73;4.73;;;;;;;;;;5040617;28;20752;-82
2022/12/06 09:24:04;;;;;;;11.77;5.10;;;;;;;;;;5040786;28;20177;-82
2022/12/06 09:26:29;;;;;;;7.53;4.77;;;;;;;;;;5041293;28;20254;-82
2022/12/06 09:28:55;;;;;;;7.40;4.90;;;;;;;;;;5040811;28;20186;-82
2022/12/06 09:31:21;;;;;;;6.17;3.53;;;;;;;;;;5020996;28;20206;-82
2022/12/06 09:33:46;;;;;;;5.73;3.43;;;;;;;;;;5027231;28;20184;-82
2022/12/06 09:36:13;;;;;;;5.37;3.20;;;;;;;;;;5026537;28;20185;-82
2022/12/06 09:38:39;;;;;;;4.93;3.00;;;;;;;;;;5045168;28;20182;-82
2022/12/06 09:41:07;;;;;;;3.80;2.57;;;;;;;;;;5040564;28;20279;-82
2022/12/06 09:43:47;;;;;;;4.57;3.10;;;;;;;;;;5044972;28;20176;-82
2022/12/06 09:46:32;;;;;;;3.70;2.73;;;;;;;;;;5041994;28;20182;-81
2022/12/06 09:48:59;;;;;;;5.43;3.27;;;;;;;;;;5035898;28;20175;-81
2022/12/06 09:51:45;;;;;;;3.77;2.93;;;;;;;;;;5036582;28;20208;-82
2022/12/06 09:54:19;;;;;;;5.30;2.90;;;;;;;;;;5036404;28;20201;-81
2022/12/06 09:56:48;;;;;;;4.63;3.60;;;;;;;;;;5030019;28;20182;-80
2022/12/06 09:59:17;;;;;;;5.37;2.90;;;;;;;;;;5025672;28;20179;-80
2022/12/06 10:01:52;;;;;;;3.87;3.00;;;;;;;;;;5039245;28;20711;-81
2022/12/06 10:04:38;;;;;;;3.63;2.67;;;;;;;;;;5020981;28;20177;-81
2022/12/06 10:07:23;;;;;;;5.60;3.63;;;;;;;;;;5038122;28;20182;-81
2022/12/06 10:09:55;;;;;;;5.20;4.17;;;;;;;;;;5035613;28;20178;-80
2022/12/06 10:12:20;;;;;;;5.63;2.87;;;;;;;;;;5034362;28;20228;-80
2022/12/06 10:14:48;;;;;;;5.93;2.90;;;;;;;;;;5038159;28;20640;-80
2022/12/06 10:17:19;;;;;;;4.67;2.57;;;;;;;;;;5038319;28;20584;-81
2022/12/06 10:19:51;;;;;;;4.50;2.53;;;;;;;;;;5031313;28;20170;-81
2022/12/06 10:22:31;;;;;;;4.70;2.53;;;;;;;;;;5037217;28;20229;-81
2022/12/06 10:25:01;;;;;;;4.47;2.40;;;;;;;;;;5016585;28;20676;-81
2022/12/06 10:27:37;;;;;;;5.67;2.30;;;;;;;;;;5040106;28;20253;-81
2022/12/06 10:30:12;;;;;;;2.67;2.03;;;;;;;;;;5040915;28;20587;-81
2022/12/06 10:32:52;;;;;;;4.47;1.80;;;;;;;;;;5025259;28;20178;-81
2022/12/06 10:35:29;;;;;;;3.20;2.10;;;;;;;;;;5040452;28;20193;-81
2022/12/06 10:38:11;;;;;;;5.20;2.43;;;;;;;;;;5039810;28;20194;-81
2022/12/06 10:40:36;;;;;;;5.07;2.60;;;;;;;;;;5042996;28;20206;-82
2022/12/06 10:43:07;;;;;;;3.23;2.07;;;;;;;;;;5039950;28;20166;-81
2022/12/06 10:48:27;;;;;;;4.60;1.90;;;;;;;;;;5035124;28;20216;-81
2022/12/06 10:50:57;;;;;;;3.67;2.13;;;;;;;;;;5034894;28;20198;-82
2022/12/06 10:53:24;;;;;;;2.97;1.90;;;;;;;;;;5037716;28;20178;-81
2022/12/06 10:56:00;;;;;;;3.53;2.13;;;;;;;;;;5041294;28;20256;-82
2022/12/06 10:58:25;;;;;;;3.47;2.10;;;;;;;;;;5037301;28;20186;-81
2022/12/06 11:00:58;;;;;;;2.60;2.00;;;;;;;;;;5036816;28;20636;-81
2022/12/06 11:03:29;;;;;;;4.53;2.23;;;;;;;;;;5037770;28;20205;-81
2022/12/06 11:05:54;;;;;;;3.33;2.47;;;;;;;;;;5036448;28;20174;-82
2022/12/06 11:08:28;;;;;;;4.50;2.43;;;;;;;;;;5038402;28;20597;-81
2022/12/06 11:10:54;;;;;;;7.53;2.57;;;;;;;;;;5035724;28;20252;-81
2022/12/06 11:13:25;;;;;;;4.50;2.70;;;;;;;;;;5034791;28;20565;-82
2022/12/06 11:15:53;;;;;;;3.67;2.77;;;;;;;;;;5036758;28;20210;-81
2022/12/06 11:18:19;;;;;;;5.17;2.47;;;;;;;;;;5042242;28;20201;-82
2022/12/06 11:20:47;;;;;;;6.50;2.47;;;;;;;;;;5034606;28;20803;-81
2022/12/06 11:23:12;;;;;;;4.17;2.30;;;;;;;;;;5035958;28;20633;-81
2022/12/06 11:25:40;;;;;;;5.67;2.37;;;;;;;;;;5036036;28;20174;-81
2022/12/06 11:28:29;;;;;;;3.07;2.13;;;;;;;;;;5014232;28;20649;-80
2022/12/06 11:30:55;;;;;;;5.20;2.30;;;;;;;;;;5034084;28;20198;-81
2022/12/06 11:33:25;;;;;;;4.63;2.17;;;;;;;;;;5034090;28;20187;-80
2022/12/06 11:35:50;;;;;;;4.80;1.90;;;;;;;;;;5039168;28;20179;-81
2022/12/06 11:38:15;;;;;;;5.33;1.97;;;;;;;;;;5039213;28;20201;-80
2022/12/06 11:40:42;;;;;;;4.67;2.37;;;;;;;;;;5020314;28;20279;-81
2022/12/06 11:43:11;;;;;;;4.13;2.17;;;;;;;;;;5038552;28;20174;-81
2022/12/06 11:45:40;;;;;;;5.00;2.23;;;;;;;;;;5020605;28;20588;-80
2022/12/06 11:48:15;;;;;;;4.57;2.00;;;;;;;;;;5040106;28;20176;-80
2022/12/06 11:50:42;;;;;;;3.83;2.27;;;;;;;;;;5034016;28;20623;-80
2022/12/06 11:53:14;;;;;;;3.80;2.40;;;;;;;;;;5040376;28;20183;-80
2022/12/06 11:55:44;;;;;;;4.37;2.30;;;;;;;;;;5035237;28;20183;-80
2022/12/06 11:58:09;;;;;;;2.83;2.00;;;;;;;;;;5015210;28;20186;-81
2022/12/06 12:00:35;;;;;;;4.80;2.30;;;;;;;;;;5032874;28;20240;-81
2022/12/06 12:03:00;;;;;;;5.33;2.20;;;;;;;;;;5033134;28;20220;-81
2022/12/06 12:05:30;;;;;;;8.93;2.33;;;;;;;;;;5034408;28;20679;-80
2022/12/06 12:08:18;;;;;;;5.10;1.70;;;;;;;;;;5031307;28;20269;-81
2022/12/06 12:10:44;;;;;;;4.93;1.67;;;;;;;;;;5023998;28;20218;-81
2022/12/06 12:15:54;;;;;;;5.10;1.50;;;;;;;;;;5031026;28;20751;-81
2022/12/06 12:18:25;;;;;;;3.37;1.47;;;;;;;;;;5033728;28;20188;-81
2022/12/06 12:20:51;;;;;;;3.10;2.00;;;;;;;;;;5039837;28;20221;-80
2022/12/06 12:23:22;;;;;;;2.57;1.80;;;;;;;;;;5035421;28;20178;-81
2022/12/06 12:26:09;;;;;;;2.50;1.70;;;;;;;;;;5035960;28;20174;-80
2022/12/06 12:28:34;;;;;;;3.17;1.90;;;;;;;;;;5032177;28;20668;-80
2022/12/06 12:31:07;;;;;;;4.33;2.00;;;;;;;;;;5019550;28;20209;-80
2022/12/06 12:33:32;;;;;;;3.70;1.87;;;;;;;;;;5032996;28;20257;-80
2022/12/06 12:36:01;;;;;;;1.73;1.60;;;;;;;;;;5019360;28;20201;-80
2022/12/06 12:38:29;;;;;;;3.83;2.13;;;;;;;;;;5019276;28;20193;-80
2022/12/06 12:40:58;;;;;;;3.03;1.67;;;;;;;;;;5020680;28;20206;-80
2022/12/06 12:43:32;;;;;;;2.53;1.87;;;;;;;;;;5017252;28;20178;-80
2022/12/06 12:46:01;;;;;;;5.37;2.00;;;;;;;;;;5033577;28;20180;-80
2022/12/06 12:48:27;;;;;;;5.57;1.90;;;;;;;;;;5022213;28;20250;-80
2022/12/06 12:50:54;;;;;;;5.60;2.53;;;;;;;;;;5016809;28;20233;-80
2022/12/06 12:53:27;;;;;;;2.50;1.50;;;;;;;;;;5031899;28;20179;-80
2022/12/06 12:56:04;;;;;;;4.07;2.10;;;;;;;;;;5013747;28;20743;-79
2022/12/06 12:58:29;;;;;;;2.07;1.67;;;;;;;;;;5031794;28;20531;-80
2022/12/06 13:00:57;;;;;;;1.83;1.33;;;;;;;;;;5034454;28;20301;-79
2022/12/06 13:03:25;;;;;;;4.53;1.57;;;;;;;;;;5031669;28;20170;-81
2022/12/06 13:05:50;;;;;;;2.67;1.37;;;;;;;;;;5033393;28;20496;-80
2022/12/06 13:08:18;;;;;;;1.53;1.03;;;;;;;;;;5034773;28;20182;-80
2022/12/06 13:10:47;;;;;;;2.73;1.30;;;;;;;;;;5012228;28;20578;-80
2022/12/06 13:13:15;;;;;;;4.93;1.57;;;;;;;;;;5033167;28;20218;-80
2022/12/06 13:15:48;;;;;;;1.83;1.03;;;;;;;;;;5025288;28;20182;-80
2022/12/06 13:18:22;;;;;;;4.50;1.40;;;;;;;;;;5039994;28;20261;-80
2022/12/06 13:20:48;;;;;;;5.43;1.60;;;;;;;;;;5035155;28;20202;-80
2022/12/06 13:23:13;;;;;;;3.77;1.30;;;;;;;;;;5040250;28;20529;-80
2022/12/06 13:25:38;;;;;;;1.97;1.13;;;;;;;;;;5014505;28;20171;-80
2022/12/06 13:28:05;;;;;;;3.27;1.40;;;;;;;;;;5031555;28;20193;-79
2022/12/06 13:30:33;;;;;;;4.60;1.30;;;;;;;;;;5028346;28;20203;-80
2022/12/06 13:32:59;;;;;;;2.43;1.70;;;;;;;;;;5031071;28;20174;-81
2022/12/06 13:35:27;;;;;;;2.53;1.37;;;;;;;;;;5032830;28;20178;-80
2022/12/06 13:37:57;;;;;;;1.97;1.10;;;;;;;;;;5013799;28;20205;-81
2022/12/06 13:40:35;;;;;;;1.93;1.10;;;;;;;;;;5030995;28;20222;-79
2022/12/06 13:43:39;;;;;;;1.77;1.10;;;;;;;;;;5029739;28;20197;-80
2022/12/06 13:46:25;;;;;;;2.77;1.47;;;;;;;;;;4954545;28;20228;-80
2022/12/06 13:48:57;;;;;;;3.60;1.57;;;;;;;;;;4958811;28;20186;-80
2022/12/06 13:51:31;;;;;;;4.83;1.77;;;;;;;;;;5008867;28;20593;-80
2022/12/06 13:54:03;;;;;;;2.87;1.67;;;;;;;;;;5033837;28;20236;-80
2022/12/06 13:56:29;;;;;;;2.17;1.50;;;;;;;;;;5014900;28;20647;-79
2022/12/06 13:58:55;;;;;;;4.03;1.47;;;;;;;;;;5014218;28;20189;-80
2022/12/06 14:01:33;;;;;;;5.97;1.83;;;;;;;;;;5032111;28;20211;-80
2022/12/06 14:06:41;;;;;;;3.50;1.50;;;;;;;;;;4989132;28;20247;-70
2022/12/06 14:09:08;;;;;;;4.63;1.90;;;;;;;;;;4994207;28;20188;-70
2022/12/06 14:11:33;;;;;;;2.80;1.80;;;;;;;;;;4988508;28;20191;-70
2022/12/06 14:14:07;;;;;;;3.60;2.10;;;;;;;;;;4991210;28;20195;-71
2022/12/06 14:16:32;;;;;;;3.20;1.70;;;;;;;;;;4989919;28;20278;-70
2022/12/06 14:18:58;;;;;;;4.07;2.33;;;;;;;;;;4989881;28;20692;-70
2022/12/06 14:21:29;;;;;;;2.90;2.13;;;;;;;;;;4990998;28;20207;-70
2022/12/06 14:23:54;;;;;;;2.87;1.40;;;;;;;;;;4993751;28;20692;-71
2022/12/06 14:26:22;;;;;;;8.60;1.63;;;;;;;;;;4969662;28;20187;-71
2022/12/06 14:28:48;;;;;;;3.23;1.20;;;;;;;;;;4984616;28;20435;-71
2022/12/06 14:31:22;;;;;;;2.83;1.17;;;;;;;;;;4992248;28;20191;-70
2022/12/06 14:33:48;;;;;;;1.70;1.20;;;;;;;;;;4992156;28;20198;-70
2022/12/06 14:36:16;;;;;;;2.97;1.20;;;;;;;;;;4993984;28;20199;-70
2022/12/06 14:38:41;;;;;;;1.43;1.03;;;;;;;;;;4994197;28;20650;-70
2022/12/06 14:43:59;;;;;;;2.23;1.60;;;;;;;;;;4994304;28;20230;-70
2022/12/06 14:46:25;;;;;;;2.60;1.70;;;;;;;;;;4993154;28;20598;-70
2022/12/06 14:51:35;;;;;;;6.53;1.80;;;;;;;;;;4985428;28;20207;-71
2022/12/06 14:54:16;;;;;;;5.73;1.67;;;;;;;;;;4984273;28;20204;-70
2022/12/06 14:56:43;;;;;;;4.00;1.50;;;;;;;;;;4993299;28;20187;-71
2022/12/06 14:59:09;;;;;;;4.43;1.23;;;;;;;;;;4995091;28;20191;-71
2022/12/06 15:01:44;;;;;;;3.67;2.20;;;;;;;;;;4993404;28;20255;-70
2022/12/06 15:04:21;;;;;;;2.97;1.00;;;;;;;;;;4994433;28;20253;-71
2022/12/06 15:06:54;;;;;;;2.93;1.50;;;;;;;;;;4997154;28;20197;-70
2022/12/06 15:09:21;;;;;;;2.37;1.47;;;;;;;;;;4993005;28;20179;-71
2022/12/06 15:14:34;;;;;;;2.03;1.40;;;;;;;;;;4993593;28;20748;-71
2022/12/06 15:16:59;;;;;;;3.10;1.40;;;;;;;;;;4994062;28;20172;-71
2022/12/06 15:19:24;;;;;;;2.30;1.13;;;;;;;;;;4992761;28;20601;-71
2022/12/06 15:21:52;;;;;;;2.13;1.30;;;;;;;;;;4992877;28;20581;-71
2022/12/06 15:24:22;;;;;;;4.20;1.57;;;;;;;;;;4994379;28;20203;-70
2022/12/06 15:26:47;;;;;;;3.10;1.40;;;;;;;;;;4993685;28;20187;-70
2022/12/06 15:29:13;;;;;;;4.10;1.63;;;;;;;;;;4993745;28;20535;-71